createdAt,value
2023-05-12T00:01:14.354Z,11.43
2023-05-12T00:03:41.703Z,11.44
2023-05-12T00:06:08.527Z,11.40
2023-05-12T00:08:35.098Z,11.43
2023-05-12T00:11:01.822Z,11.43
2023-05-12T00:13:29.095Z,11.44
2023-05-12T00:15:58.732Z,11.44
2023-05-12T00:18:26.358Z,11.46
2023-05-12T00:20:54.449Z,11.43
2023-05-12T00:23:22.633Z,11.35
2023-05-12T00:25:50.196Z,11.36
2023-05-12T00:28:18.686Z,11.37
2023-05-12T00:30:45.353Z,11.34
2023-05-12T00:33:12.015Z,11.36
2023-05-12T00:35:38.638Z,11.31
2023-05-12T00:38:05.214Z,11.32
2023-05-12T00:40:31.906Z,11.33
2023-05-12T00:42:58.562Z,11.30
2023-05-12T00:45:25.201Z,11.31
2023-05-12T00:47:52.979Z,11.32
2023-05-12T00:50:20.237Z,11.34
2023-05-12T00:52:48.380Z,11.36
2023-05-12T00:55:15.243Z,11.38
2023-05-12T00:57:43.120Z,11.33
2023-05-12T01:00:10.737Z,11.35
2023-05-12T01:02:37.646Z,11.35
2023-05-12T01:05:04.985Z,11.32
2023-05-12T01:07:33.104Z,11.34
2023-05-12T01:09:59.808Z,11.36
2023-05-12T01:12:27.613Z,11.29
2023-05-12T01:14:56.076Z,11.28
2023-05-12T01:17:29.458Z,11.27
2023-05-12T01:20:02.311Z,11.28
2023-05-12T01:22:33.728Z,11.31
2023-05-12T01:25:00.552Z,11.32
2023-05-12T01:27:28.739Z,11.33
2023-05-12T01:29:59.003Z,11.32
2023-05-12T01:32:26.390Z,11.31
2023-05-12T01:34:53.159Z,11.30
2023-05-12T01:37:19.925Z,11.33
2023-05-12T01:39:46.521Z,11.33
2023-05-12T01:42:13.184Z,11.36
2023-05-12T01:44:39.786Z,11.37
2023-05-12T01:47:09.912Z,11.39
2023-05-12T01:49:37.045Z,11.39
2023-05-12T01:52:04.026Z,11.39
2023-05-12T01:54:30.780Z,11.42
2023-05-12T01:56:57.373Z,11.42
2023-05-12T01:59:23.984Z,11.41
2023-05-12T02:01:50.625Z,11.36
2023-05-12T02:04:17.410Z,11.36
2023-05-12T02:06:43.996Z,11.35
2023-05-12T02:09:10.555Z,11.35
2023-05-12T02:11:37.664Z,11.35
2023-05-12T02:14:04.341Z,11.38
2023-05-12T02:16:31.001Z,11.38
2023-05-12T02:18:57.681Z,11.36
2023-05-12T02:21:24.281Z,11.35
2023-05-12T02:23:50.922Z,11.38
2023-05-12T02:26:19.125Z,11.36
2023-05-12T02:28:45.676Z,11.38
2023-05-12T02:31:12.305Z,11.36
2023-05-12T02:33:38.864Z,11.37
2023-05-12T02:36:05.885Z,11.35
2023-05-12T02:38:32.604Z,11.37
2023-05-12T02:40:59.194Z,11.38
2023-05-12T02:43:25.759Z,11.38
2023-05-12T02:45:52.862Z,11.36
2023-05-12T02:48:19.417Z,11.35
2023-05-12T02:50:47.593Z,11.34
2023-05-12T02:53:14.191Z,11.34
2023-05-12T02:55:40.853Z,11.35
2023-05-12T02:58:07.608Z,11.34
2023-05-12T03:00:34.196Z,11.31
2023-05-12T03:03:00.946Z,11.30
2023-05-12T03:05:27.587Z,11.30
2023-05-12T03:07:54.213Z,11.29
2023-05-12T03:10:21.263Z,11.29
2023-05-12T03:12:48.150Z,11.27
2023-05-12T03:15:14.831Z,11.23
2023-05-12T03:17:41.698Z,11.23
2023-05-12T03:20:08.610Z,11.22
2023-05-12T03:22:36.481Z,11.25
2023-05-12T03:25:04.951Z,11.24
2023-05-12T03:27:33.011Z,11.21
2023-05-12T03:30:05.019Z,11.22
2023-05-12T03:32:31.835Z,11.18
2023-05-12T03:34:58.709Z,11.17
2023-05-12T03:37:25.349Z,11.18
2023-05-12T03:39:51.944Z,11.17
2023-05-12T03:42:19.275Z,11.17
2023-05-12T03:44:45.840Z,11.16
2023-05-12T03:47:12.682Z,11.16
2023-05-12T03:49:39.372Z,11.14
2023-05-12T03:52:06.294Z,11.15
2023-05-12T03:54:32.910Z,11.13
2023-05-12T03:56:59.547Z,11.11
2023-05-12T03:59:26.197Z,11.11
2023-05-12T04:01:55.834Z,11.15
2023-05-12T04:04:22.479Z,11.14
2023-05-12T04:06:49.235Z,11.11
2023-05-12T04:09:18.713Z,11.14
2023-05-12T04:11:45.234Z,11.13
2023-05-12T04:14:11.815Z,11.13
2023-05-12T04:16:38.520Z,11.19
2023-05-12T04:19:05.288Z,11.20
2023-05-12T04:21:33.096Z,11.21
2023-05-12T04:23:59.735Z,11.23
2023-05-12T04:26:27.075Z,11.23
2023-05-12T04:28:53.914Z,11.23
2023-05-12T04:31:20.649Z,11.21
2023-05-12T04:33:48.433Z,11.21
2023-05-12T04:36:15.635Z,11.23
2023-05-12T04:38:42.248Z,11.28
2023-05-12T04:41:09.306Z,11.31
2023-05-12T04:46:05.708Z,11.32
2023-05-12T04:48:32.383Z,11.34
2023-05-12T04:51:00.422Z,11.36
2023-05-12T04:53:34.517Z,11.33
2023-05-12T04:56:01.722Z,11.35
2023-05-12T04:58:28.314Z,11.39
2023-05-12T05:00:55.024Z,11.38
2023-05-12T05:03:21.766Z,11.41
2023-05-12T05:05:49.165Z,11.43
2023-05-12T05:08:15.747Z,11.46
2023-05-12T05:10:42.421Z,11.46
2023-05-12T05:13:08.979Z,11.50
2023-05-12T05:15:35.552Z,11.51
2023-05-12T05:18:02.275Z,11.52
2023-05-12T05:20:29.518Z,11.51
2023-05-12T05:22:56.232Z,11.54
2023-05-12T05:25:22.988Z,11.57
2023-05-12T05:27:49.608Z,11.58
2023-05-12T05:30:16.774Z,11.64
2023-05-12T05:32:43.521Z,11.69
2023-05-12T05:35:10.283Z,11.70
2023-05-12T05:37:37.858Z,11.72
2023-05-12T05:40:05.152Z,11.76
2023-05-12T05:42:31.714Z,11.76
2023-05-12T05:44:58.255Z,11.76
2023-05-12T05:47:24.837Z,11.74
2023-05-12T05:49:51.455Z,11.78
2023-05-12T05:52:18.133Z,11.84
2023-05-12T05:54:44.781Z,11.77
2023-05-12T05:57:11.374Z,11.77
2023-05-12T05:59:38.440Z,11.80
2023-05-12T06:02:05.283Z,11.77
2023-05-12T06:04:31.958Z,11.79
2023-05-12T06:06:58.592Z,11.83
2023-05-12T06:09:25.183Z,11.84
2023-05-12T06:11:51.974Z,11.82
2023-05-12T06:14:18.572Z,11.87
2023-05-12T06:16:45.230Z,11.87
2023-05-12T06:19:12.719Z,11.82
2023-05-12T06:21:39.517Z,11.85
2023-05-12T06:24:06.524Z,11.84
2023-05-12T06:26:33.149Z,11.84
2023-05-12T06:28:59.672Z,11.87
2023-05-12T06:31:26.466Z,11.89
2023-05-12T06:33:53.058Z,11.91
2023-05-12T06:36:19.683Z,11.96
2023-05-12T06:38:46.303Z,11.97
2023-05-12T06:41:12.961Z,11.94
2023-05-12T06:43:39.846Z,11.97
2023-05-12T06:46:06.988Z,12.02
2023-05-12T06:48:33.661Z,12.06
2023-05-12T06:51:00.381Z,12.12
2023-05-12T06:53:27.329Z,12.10
2023-05-12T06:55:55.096Z,12.17
2023-05-12T06:58:22.193Z,12.24
2023-05-12T07:00:48.834Z,12.26
2023-05-12T07:03:15.673Z,12.28
2023-05-12T07:05:42.776Z,12.30
2023-05-12T07:08:09.395Z,12.30
2023-05-12T07:10:35.991Z,12.39
2023-05-12T07:13:02.721Z,12.43
2023-05-12T07:15:31.198Z,12.45
2023-05-12T07:17:59.521Z,12.45
2023-05-12T07:20:26.137Z,12.51
2023-05-12T07:22:54.688Z,12.54
2023-05-12T07:25:21.901Z,12.56
2023-05-12T07:27:49.265Z,12.59
2023-05-12T07:30:16.542Z,12.60
2023-05-12T07:32:43.258Z,12.58
2023-05-12T07:35:10.542Z,12.62
2023-05-12T07:37:37.230Z,12.63
2023-05-12T07:40:04.799Z,12.62
2023-05-12T07:42:31.423Z,12.70
2023-05-12T07:44:57.975Z,12.74
2023-05-12T07:47:24.704Z,12.79
2023-05-12T07:49:51.228Z,12.87
2023-05-12T07:52:17.973Z,12.94
2023-05-12T07:54:44.619Z,13.02
2023-05-12T07:57:11.211Z,13.05
2023-05-12T07:59:37.812Z,13.16
2023-05-12T08:02:04.728Z,13.24
2023-05-12T08:04:31.541Z,13.30
2023-05-12T08:06:58.243Z,13.29
2023-05-12T08:09:24.793Z,13.30
2023-05-12T08:11:51.801Z,13.30
2023-05-12T08:14:18.552Z,13.26
2023-05-12T08:16:46.512Z,13.34
2023-05-12T08:19:13.877Z,13.35
2023-05-12T08:21:40.682Z,13.36
2023-05-12T08:24:07.292Z,13.32
2023-05-12T08:26:33.863Z,13.37
2023-05-12T08:29:00.527Z,13.37
2023-05-12T08:31:27.466Z,13.39
2023-05-12T08:34:09.091Z,13.38
2023-05-12T08:36:36.897Z,13.39
2023-05-12T08:39:04.290Z,13.38
2023-05-12T08:42:00.128Z,13.45
2023-05-12T08:44:27.138Z,13.53
2023-05-12T08:46:55.153Z,13.60
2023-05-12T08:49:27.653Z,13.65
2023-05-12T08:51:57.911Z,13.66
2023-05-12T08:54:27.662Z,13.58
2023-05-12T08:59:24.856Z,13.45
2023-05-12T09:01:51.487Z,13.38
2023-05-12T09:04:18.411Z,13.38
2023-05-12T09:06:45.484Z,13.37
2023-05-12T09:09:17.468Z,13.32
2023-05-12T09:11:44.480Z,13.29
2023-05-12T09:14:22.926Z,13.26
2023-05-12T09:16:53.731Z,13.20
2023-05-12T09:19:21.494Z,13.18
2023-05-12T09:21:48.882Z,13.14
2023-05-12T09:24:15.501Z,13.08
2023-05-12T09:26:47.599Z,13.08
2023-05-12T09:29:24.063Z,13.10
2023-05-12T09:32:00.793Z,13.08
2023-05-12T09:34:31.567Z,13.06
2023-05-12T09:37:01.186Z,13.07
2023-05-12T09:39:29.013Z,12.97
2023-05-12T09:41:56.066Z,12.98
2023-05-12T09:44:24.590Z,12.89
2023-05-12T09:46:51.460Z,12.92
2023-05-12T09:49:22.674Z,12.98
2023-05-12T09:51:59.540Z,13.06
2023-05-12T09:54:26.799Z,13.05
2023-05-12T09:56:58.449Z,13.10
2023-05-12T09:59:30.156Z,13.10
2023-05-12T10:02:00.390Z,12.96
2023-05-12T10:04:30.298Z,12.91
2023-05-12T10:06:58.481Z,12.77
2023-05-12T10:09:36.113Z,12.73
2023-05-12T10:12:04.573Z,12.75
2023-05-12T10:14:31.795Z,12.69
2023-05-12T10:16:59.935Z,12.70
2023-05-12T10:19:28.386Z,12.72
2023-05-12T10:21:57.618Z,12.70
2023-05-12T10:24:28.354Z,12.66
2023-05-12T10:26:56.638Z,12.62
2023-05-12T10:29:29.953Z,12.59
2023-05-12T10:31:57.606Z,12.55
2023-05-12T10:34:37.174Z,12.53
2023-05-12T10:37:10.880Z,12.56
2023-05-12T10:39:46.436Z,12.56
2023-05-12T10:42:17.520Z,12.61
2023-05-12T10:44:54.640Z,12.57
2023-05-12T10:47:26.872Z,12.58
2023-05-12T10:49:59.776Z,12.62
2023-05-12T10:52:26.471Z,12.65
2023-05-12T10:55:04.054Z,12.77
2023-05-12T10:57:32.013Z,12.86
2023-05-12T11:00:01.125Z,12.85
2023-05-12T11:02:32.650Z,12.86
2023-05-12T11:05:04.226Z,12.79
2023-05-12T11:07:34.700Z,12.74
2023-05-12T11:10:05.401Z,12.77
2023-05-12T11:12:37.701Z,12.73
2023-05-12T11:15:06.818Z,12.71
2023-05-12T11:17:33.847Z,12.78
2023-05-12T11:20:01.483Z,12.71
2023-05-12T11:22:28.559Z,12.72
2023-05-12T11:24:55.302Z,12.72
2023-05-12T11:27:23.358Z,12.77
2023-05-12T11:30:01.798Z,12.75
2023-05-12T11:32:29.712Z,12.79
2023-05-12T11:34:56.691Z,12.81
2023-05-12T11:37:23.366Z,12.85
2023-05-12T11:39:50.132Z,12.78
2023-05-12T11:42:19.780Z,12.79
2023-05-12T11:44:49.057Z,12.84
2023-05-12T11:47:16.944Z,12.83
2023-05-12T11:49:50.384Z,12.83
2023-05-12T11:52:18.442Z,12.85
2023-05-12T11:55:07.658Z,12.93
2023-05-12T11:57:38.364Z,12.96
2023-05-12T12:00:12.030Z,12.93
2023-05-12T12:02:39.913Z,12.83
2023-05-12T12:05:18.129Z,12.73
2023-05-12T12:07:45.298Z,12.80
2023-05-12T12:10:17.146Z,12.78
2023-05-12T12:12:44.188Z,12.75
2023-05-12T12:15:11.436Z,12.71
2023-05-12T12:17:39.854Z,12.64
2023-05-12T12:20:08.015Z,12.65
2023-05-12T12:22:35.224Z,12.58
2023-05-12T12:25:02.668Z,12.59
2023-05-12T12:27:29.369Z,12.52
2023-05-12T12:29:55.941Z,12.53
2023-05-12T12:32:22.514Z,12.47
2023-05-12T12:34:49.454Z,12.40
2023-05-12T12:37:17.195Z,12.35
2023-05-12T12:39:44.090Z,12.33
2023-05-12T12:42:10.693Z,12.29
2023-05-12T12:44:37.229Z,12.25
2023-05-12T12:47:04.389Z,12.21
2023-05-12T12:49:31.009Z,12.25
2023-05-12T12:51:57.945Z,12.27
2023-05-12T12:54:27.357Z,12.30
2023-05-12T12:56:55.430Z,12.33
2023-05-12T12:59:22.030Z,12.31
2023-05-12T13:01:48.884Z,12.24
2023-05-12T13:04:15.479Z,12.22
2023-05-12T13:06:42.077Z,12.21
2023-05-12T13:09:09.138Z,12.25
2023-05-12T13:11:35.863Z,12.25
2023-05-12T13:14:04.244Z,12.23
2023-05-12T13:16:31.180Z,12.19
2023-05-12T13:18:58.017Z,12.17
2023-05-12T13:21:24.780Z,12.09
2023-05-12T13:23:51.326Z,12.07
2023-05-12T13:26:17.896Z,12.06
2023-05-12T13:28:44.449Z,12.05
2023-05-12T13:31:11.694Z,12.05
2023-05-12T13:33:38.330Z,11.97
2023-05-12T13:36:05.228Z,12.00
2023-05-12T13:38:32.284Z,11.97
2023-05-12T13:40:58.896Z,11.99
2023-05-12T13:43:25.440Z,11.97
2023-05-12T13:45:52.192Z,11.99
2023-05-12T13:48:18.853Z,12.03
2023-05-12T13:50:45.388Z,12.03
2023-05-12T13:53:13.114Z,12.00
2023-05-12T13:55:41.333Z,12.01
2023-05-12T13:58:07.952Z,12.00
2023-05-12T14:00:34.574Z,12.01
2023-05-12T14:03:01.780Z,11.97
2023-05-12T14:05:28.608Z,11.90
2023-05-12T14:07:55.712Z,11.92
2023-05-12T14:10:22.286Z,11.88
2023-05-12T14:12:48.954Z,11.86
2023-05-12T14:15:28.959Z,11.87
2023-05-12T14:18:02.191Z,11.89
2023-05-12T14:20:28.828Z,11.89
2023-05-12T14:22:55.665Z,11.91
2023-05-12T14:25:22.993Z,11.88
2023-05-12T14:27:49.774Z,11.90
2023-05-12T14:30:16.585Z,11.90
2023-05-12T14:32:43.549Z,11.85
2023-05-12T14:35:10.733Z,11.82
2023-05-12T14:37:37.468Z,11.79
2023-05-12T14:40:04.833Z,11.77
2023-05-12T14:42:32.377Z,11.74
2023-05-12T14:44:59.407Z,11.63
2023-05-12T14:47:26.086Z,11.62
2023-05-12T14:49:52.879Z,11.67
2023-05-12T14:52:19.410Z,11.74
2023-05-12T14:54:46.030Z,11.78
2023-05-12T14:57:13.617Z,11.83
2023-05-12T14:59:40.273Z,11.85
2023-05-12T15:02:07.764Z,11.87
2023-05-12T15:04:34.564Z,11.89
2023-05-12T15:07:01.148Z,11.93
2023-05-12T15:09:27.756Z,11.92
2023-05-12T15:11:55.149Z,11.97
2023-05-12T15:14:21.755Z,11.98
2023-05-12T15:16:48.405Z,12.00
2023-05-12T15:19:15.293Z,11.98
2023-05-12T15:21:41.999Z,11.91
2023-05-12T15:24:08.807Z,11.87
2023-05-12T15:26:38.293Z,11.90
2023-05-12T15:29:06.381Z,11.88
2023-05-12T15:31:33.086Z,11.86
2023-05-12T15:34:00.373Z,11.79
2023-05-12T15:36:27.006Z,11.76
2023-05-12T15:38:53.668Z,11.72
2023-05-12T15:41:20.545Z,11.72
2023-05-12T15:43:47.345Z,11.67
2023-05-12T15:46:13.968Z,11.67
2023-05-12T15:48:40.591Z,11.65
2023-05-12T15:51:07.268Z,11.62
2023-05-12T15:53:34.194Z,11.52
2023-05-12T15:56:04.970Z,11.54
2023-05-12T15:58:32.050Z,11.55
2023-05-12T16:00:59.080Z,11.55
2023-05-12T16:03:25.890Z,11.55
2023-05-12T16:05:52.669Z,11.54
2023-05-12T16:08:19.444Z,11.55
2023-05-12T16:10:46.058Z,11.51
2023-05-12T16:13:13.791Z,11.49
2023-05-12T16:15:40.522Z,11.47
2023-05-12T16:18:10.913Z,11.47
2023-05-12T16:20:39.083Z,11.47
2023-05-12T16:23:05.784Z,11.44
2023-05-12T16:25:32.330Z,11.45
2023-05-12T16:27:59.049Z,11.38
2023-05-12T16:30:26.398Z,11.40
2023-05-12T16:32:53.108Z,11.42
2023-05-12T16:35:20.014Z,11.40
2023-05-12T16:37:47.267Z,11.37
2023-05-12T16:40:15.133Z,11.36
2023-05-12T16:42:42.698Z,11.40
2023-05-12T16:45:10.933Z,11.38
2023-05-12T16:47:37.787Z,11.40
2023-05-12T16:50:05.123Z,11.40
2023-05-12T16:52:33.715Z,11.35
2023-05-12T16:55:00.741Z,11.32
2023-05-12T16:57:27.576Z,11.32
2023-05-12T16:59:54.164Z,11.31
2023-05-12T17:02:20.898Z,11.29
2023-05-12T17:04:48.004Z,11.27
2023-05-12T17:07:14.788Z,11.26
2023-05-12T17:09:41.321Z,11.25
2023-05-12T17:12:08.593Z,11.24
2023-05-12T17:14:35.273Z,11.22
2023-05-12T17:17:02.334Z,11.17
2023-05-12T17:19:28.939Z,11.18
2023-05-12T17:21:55.646Z,11.16
2023-05-12T17:24:22.310Z,11.13
2023-05-12T17:26:48.876Z,11.13
2023-05-12T17:29:15.565Z,11.10
2023-05-12T17:31:42.980Z,11.11
2023-05-12T17:34:09.821Z,11.14
2023-05-12T17:36:36.522Z,11.12
2023-05-12T17:39:03.825Z,11.11
2023-05-12T17:41:30.403Z,11.11
2023-05-12T17:43:56.959Z,11.09
2023-05-12T17:46:23.569Z,11.08
2023-05-12T17:48:50.231Z,11.08
2023-05-12T17:51:17.079Z,11.06
2023-05-12T17:53:43.842Z,11.04
2023-05-12T17:56:10.529Z,11.04
2023-05-12T17:58:37.156Z,11.01
2023-05-12T18:01:03.854Z,11.01
2023-05-12T18:03:30.562Z,10.98
2023-05-12T18:05:57.308Z,10.97
2023-05-12T18:08:23.931Z,10.93
2023-05-12T18:10:50.559Z,10.94
2023-05-12T18:13:17.184Z,10.88
2023-05-12T18:15:43.819Z,10.90
2023-05-12T18:18:10.844Z,10.91
2023-05-12T18:20:37.732Z,10.90
2023-05-12T18:23:04.404Z,10.88
2023-05-12T18:25:30.993Z,10.86
2023-05-12T18:27:57.581Z,10.83
2023-05-12T18:30:24.261Z,10.80
2023-05-12T18:32:51.093Z,10.79
2023-05-12T18:35:18.066Z,10.70
2023-05-12T18:37:44.969Z,10.69
2023-05-12T18:40:12.192Z,10.70
2023-05-12T18:42:38.964Z,10.69
2023-05-12T18:45:06.253Z,10.69
2023-05-12T18:47:33.571Z,10.64
2023-05-12T18:50:00.239Z,10.61
2023-05-12T18:52:26.836Z,10.57
2023-05-12T18:54:53.450Z,10.56
2023-05-12T18:57:20.229Z,10.56
2023-05-12T18:59:46.771Z,10.58
2023-05-12T19:02:13.368Z,10.57
2023-05-12T19:04:40.010Z,10.57
2023-05-12T19:07:09.687Z,10.56
2023-05-12T19:09:37.217Z,10.57
2023-05-12T19:12:06.012Z,10.55
2023-05-12T19:14:32.886Z,10.53
2023-05-12T19:16:59.485Z,10.54
2023-05-12T19:19:26.087Z,10.53
2023-05-12T19:21:52.921Z,10.54
2023-05-12T19:24:19.582Z,10.57
2023-05-12T19:26:46.270Z,10.60
2023-05-12T19:29:12.958Z,10.59
2023-05-12T19:31:58.039Z,10.60
2023-05-12T19:34:25.098Z,10.58
2023-05-12T19:36:53.011Z,10.58
2023-05-12T19:39:19.579Z,10.56
2023-05-12T19:41:46.276Z,10.56
2023-05-12T19:44:13.027Z,10.56
2023-05-12T19:46:42.333Z,10.54
2023-05-12T19:49:09.230Z,10.53
2023-05-12T19:51:35.872Z,10.54
2023-05-12T19:54:04.810Z,10.49
2023-05-12T19:56:31.433Z,10.50
2023-05-12T19:58:58.168Z,10.51
2023-05-12T20:01:25.330Z,10.53
2023-05-12T20:03:54.992Z,10.52
2023-05-12T20:06:22.490Z,10.52
2023-05-12T20:08:49.044Z,10.53
2023-05-12T20:11:16.066Z,10.51
2023-05-12T20:13:42.655Z,10.48
2023-05-12T20:16:09.244Z,10.48
2023-05-12T20:18:35.808Z,10.50
2023-05-12T20:21:02.387Z,10.48
2023-05-12T20:23:28.970Z,10.48
2023-05-12T20:25:55.586Z,10.49
2023-05-12T20:28:23.972Z,10.49
2023-05-12T20:30:50.729Z,10.47
2023-05-12T20:33:18.180Z,10.45
2023-05-12T20:35:44.781Z,10.46
2023-05-12T20:38:11.361Z,10.45
2023-05-12T20:40:38.382Z,10.48
2023-05-12T20:43:04.986Z,10.46
2023-05-12T20:45:31.588Z,10.50
2023-05-12T20:47:58.186Z,10.49
2023-05-12T20:50:26.907Z,10.47
2023-05-12T20:52:53.499Z,10.50
2023-05-12T20:55:20.307Z,10.51
2023-05-12T20:57:47.071Z,10.50
2023-05-12T21:00:14.160Z,10.49
2023-05-12T21:02:40.823Z,10.51
2023-05-12T21:05:07.863Z,10.54
2023-05-12T21:07:34.542Z,10.55
2023-05-12T21:10:01.124Z,10.55
2023-05-12T21:12:27.692Z,10.55
2023-05-12T21:14:54.658Z,10.52
2023-05-12T21:17:21.361Z,10.53
2023-05-12T21:19:48.080Z,10.55
2023-05-12T21:22:14.742Z,10.55
2023-05-12T21:24:42.020Z,10.56
2023-05-12T21:27:08.656Z,10.54
2023-05-12T21:29:35.705Z,10.56
2023-05-12T21:32:02.477Z,10.58
2023-05-12T21:34:29.120Z,10.57
2023-05-12T21:36:56.477Z,10.56
2023-05-12T21:39:23.089Z,10.54
2023-05-12T21:41:49.754Z,10.56
2023-05-12T21:44:16.473Z,10.60
2023-05-12T21:46:43.380Z,10.62
2023-05-12T21:49:10.338Z,10.64
2023-05-12T21:51:37.131Z,10.63
2023-05-12T21:54:04.036Z,10.64
2023-05-12T21:56:30.696Z,10.60
2023-05-12T21:58:57.253Z,10.64
2023-05-12T22:01:23.847Z,10.64
2023-05-12T22:03:50.665Z,10.67
2023-05-12T22:06:17.421Z,10.69
2023-05-12T22:08:44.036Z,10.70
2023-05-12T22:11:11.498Z,10.71
2023-05-12T22:13:38.199Z,10.70
2023-05-12T22:16:05.226Z,10.71
2023-05-12T22:18:31.999Z,10.72
2023-05-12T22:20:58.933Z,10.71
2023-05-12T22:23:25.544Z,10.72
2023-05-12T22:25:52.268Z,10.72
2023-05-12T22:28:18.878Z,10.70
2023-05-12T22:30:45.581Z,10.70
2023-05-12T22:33:12.192Z,10.69
2023-05-12T22:35:38.854Z,10.70
2023-05-12T22:38:05.699Z,10.71
2023-05-12T22:40:33.576Z,10.72
2023-05-12T22:43:00.196Z,10.72
2023-05-12T22:45:26.832Z,10.72
2023-05-12T22:47:53.630Z,10.69
2023-05-12T22:50:21.236Z,10.69
2023-05-12T22:52:48.025Z,10.69
2023-05-12T22:55:14.735Z,10.71
2023-05-12T22:57:43.703Z,10.72
2023-05-12T23:00:10.732Z,10.74
2023-05-12T23:02:37.290Z,10.74
2023-05-12T23:05:04.261Z,10.73
2023-05-12T23:07:31.132Z,10.73
2023-05-12T23:09:57.825Z,10.71
2023-05-12T23:12:24.418Z,10.68
2023-05-12T23:14:51.345Z,10.69
2023-05-12T23:17:17.913Z,10.66
2023-05-12T23:19:44.504Z,10.64
2023-05-12T23:22:11.068Z,10.64
2023-05-12T23:24:38.236Z,10.62
2023-05-12T23:27:05.000Z,10.62
2023-05-12T23:29:31.589Z,10.64
2023-05-12T23:31:58.885Z,10.61
2023-05-12T23:34:25.694Z,10.63
2023-05-12T23:36:52.475Z,10.65
2023-05-12T23:39:19.077Z,10.61
2023-05-12T23:41:45.740Z,10.60
2023-05-12T23:44:12.885Z,10.61
2023-05-12T23:46:39.632Z,10.61
2023-05-12T23:49:06.439Z,10.58
2023-05-12T23:51:34.329Z,10.59
2023-05-12T23:54:00.939Z,10.55
2023-05-12T23:56:27.801Z,10.55
2023-05-12T23:58:54.419Z,10.55
